createdAt,value
2023-02-16T00:00:22.923Z,0.64
2023-02-16T00:02:50.427Z,0.59
2023-02-16T00:05:28.012Z,0.56
2023-02-16T00:07:56.145Z,0.70
2023-02-16T00:10:23.630Z,0.75
2023-02-16T00:13:09.270Z,0.34
2023-02-16T00:15:36.332Z,0.40
2023-02-16T00:18:06.017Z,0.26
2023-02-16T00:20:32.894Z,-0.08
2023-02-16T00:22:59.778Z,-0.11
2023-02-16T00:25:26.825Z,-0.03
2023-02-16T00:27:53.789Z,-0.34
2023-02-16T00:30:22.634Z,-0.45
2023-02-16T00:32:50.590Z,-0.32
2023-02-16T00:35:19.627Z,-0.36
2023-02-16T00:37:47.517Z,-0.51
2023-02-16T00:40:16.481Z,-0.36
2023-02-16T00:42:45.545Z,-0.35
2023-02-16T00:45:20.509Z,-0.42
2023-02-16T00:47:52.710Z,-0.50
2023-02-16T00:50:24.754Z,-0.38
2023-02-16T00:52:51.973Z,-0.45
2023-02-16T00:55:24.569Z,-0.44
2023-02-16T00:57:56.090Z,-0.31
2023-02-16T01:00:27.123Z,-0.32
2023-02-16T01:02:57.511Z,-0.36
2023-02-16T01:05:25.221Z,-0.27
2023-02-16T01:08:10.752Z,-0.16
2023-02-16T01:10:57.594Z,-0.18
2023-02-16T01:13:27.864Z,-0.27
2023-02-16T01:15:55.724Z,-0.32
2023-02-16T01:18:22.934Z,-0.59
2023-02-16T01:20:51.625Z,-0.49
2023-02-16T01:23:18.451Z,-0.37
2023-02-16T01:25:45.508Z,-0.55
2023-02-16T01:28:22.710Z,-0.58
2023-02-16T01:30:50.994Z,-0.58
2023-02-16T01:33:18.679Z,-0.58
2023-02-16T01:35:45.908Z,-0.84
2023-02-16T01:38:27.891Z,-0.73
2023-02-16T01:41:23.816Z,-0.77
2023-02-16T01:43:56.564Z,-0.74
2023-02-16T01:46:43.442Z,-0.72
2023-02-16T01:49:21.393Z,-0.69
2023-02-16T01:52:13.317Z,-0.81
2023-02-16T01:54:49.295Z,-0.79
2023-02-16T01:57:28.330Z,-0.71
2023-02-16T01:59:55.148Z,-0.53
2023-02-16T02:02:26.198Z,-0.49
2023-02-16T02:05:39.653Z,-0.61
2023-02-16T02:08:25.714Z,-0.82
2023-02-16T02:11:26.202Z,-0.86
2023-02-16T02:14:14.808Z,-1.03
2023-02-16T02:16:51.940Z,-1.02
2023-02-16T02:19:18.851Z,-1.01
2023-02-16T02:22:26.808Z,-1.04
2023-02-16T02:25:13.466Z,-1.04
2023-02-16T02:28:06.255Z,-1.02
2023-02-16T02:30:57.647Z,-1.17
2023-02-16T02:34:11.139Z,-1.08
2023-02-16T02:37:05.553Z,-0.95
2023-02-16T02:40:02.329Z,-1.06
2023-02-16T02:42:38.190Z,-1.03
2023-02-16T02:45:12.586Z,-1.14
2023-02-16T02:47:43.061Z,-1.27
2023-02-16T02:50:28.327Z,-1.21
2023-02-16T02:53:02.452Z,-1.16
2023-02-16T02:55:52.363Z,-1.33
2023-02-16T02:58:40.562Z,-1.19
2023-02-16T03:01:09.041Z,-1.12
2023-02-16T03:03:43.605Z,-1.09
2023-02-16T03:06:27.043Z,-1.10
2023-02-16T03:09:00.675Z,-1.15
2023-02-16T03:11:48.336Z,-1.19
2023-02-16T03:28:05.932Z,-1.92
2023-02-16T03:30:33.077Z,-1.81
2023-02-16T03:33:00.167Z,-1.72
2023-02-16T03:35:27.246Z,-1.62
2023-02-16T03:37:54.102Z,-1.52
2023-02-16T03:40:31.901Z,-1.56
2023-02-16T03:43:06.968Z,-1.58
2023-02-16T03:45:37.321Z,-1.49
2023-02-16T03:48:04.822Z,-1.52
2023-02-16T03:50:31.741Z,-1.56
2023-02-16T03:53:06.983Z,-1.54
2023-02-16T03:55:35.297Z,-1.61
2023-02-16T03:58:02.871Z,-1.67
2023-02-16T04:00:30.557Z,-1.60
2023-02-16T04:02:57.383Z,-1.54
2023-02-16T04:05:24.922Z,-1.68
2023-02-16T04:07:51.935Z,-1.57
2023-02-16T04:10:19.440Z,-1.62
2023-02-16T04:12:46.476Z,-1.80
2023-02-16T04:15:16.928Z,-1.63
2023-02-16T04:17:44.184Z,-1.55
2023-02-16T04:20:14.366Z,-1.78
2023-02-16T04:22:42.299Z,-1.72
2023-02-16T04:25:09.610Z,-1.58
2023-02-16T04:27:37.719Z,-1.78
2023-02-16T04:30:07.091Z,-1.63
2023-02-16T04:32:33.922Z,-1.54
2023-02-16T04:35:00.797Z,-1.86
2023-02-16T04:37:27.735Z,-1.79
2023-02-16T04:39:54.665Z,-1.71
2023-02-16T04:42:21.528Z,-1.82
2023-02-16T04:44:48.483Z,-1.81
2023-02-16T04:47:15.581Z,-1.75
2023-02-16T04:49:42.459Z,-1.99
2023-02-16T04:52:10.001Z,-1.90
2023-02-16T04:54:36.922Z,-1.78
2023-02-16T04:57:03.942Z,-2.02
2023-02-16T04:59:31.412Z,-1.91
2023-02-16T05:01:58.697Z,-1.78
2023-02-16T05:04:25.777Z,-1.97
2023-02-16T05:06:52.677Z,-1.89
2023-02-16T05:09:19.510Z,-1.67
2023-02-16T05:12:05.110Z,-1.91
2023-02-16T05:14:44.999Z,-1.81
2023-02-16T05:17:14.122Z,-1.59
2023-02-16T05:19:42.768Z,-1.75
2023-02-16T05:22:10.378Z,-1.49
2023-02-16T05:24:37.586Z,-1.25
2023-02-16T05:27:07.063Z,-1.25
2023-02-16T05:29:34.439Z,-0.94
2023-02-16T05:32:04.493Z,-0.64
2023-02-16T05:34:32.003Z,-0.79
2023-02-16T05:36:58.986Z,-0.57
2023-02-16T05:39:25.980Z,0.03
2023-02-16T05:41:52.859Z,-0.51
2023-02-16T05:44:19.765Z,-0.15
2023-02-16T05:46:46.672Z,0.45
2023-02-16T05:49:15.214Z,0.26
2023-02-16T05:51:42.474Z,0.66
2023-02-16T05:54:10.948Z,1.59
2023-02-16T05:56:37.793Z,1.15
2023-02-16T05:59:04.681Z,1.25
2023-02-16T06:01:31.602Z,2.53
2023-02-16T06:03:58.428Z,3.36
2023-02-16T06:06:25.390Z,2.58
2023-02-16T06:08:52.322Z,3.40
2023-02-16T06:11:37.493Z,4.64
2023-02-16T06:14:08.627Z,5.20
2023-02-16T06:16:37.124Z,3.75
2023-02-16T06:19:05.075Z,5.12
2023-02-16T06:21:32.810Z,5.77
2023-02-16T06:23:59.850Z,6.10
2023-02-16T06:26:27.261Z,6.81
2023-02-16T06:28:54.858Z,7.11
2023-02-16T06:31:22.646Z,6.20
2023-02-16T06:33:49.817Z,7.15
2023-02-16T06:36:17.602Z,6.69
2023-02-16T06:38:44.586Z,7.68
2023-02-16T06:41:11.816Z,8.06
2023-02-16T06:43:38.723Z,8.64
2023-02-16T06:46:05.614Z,9.75
2023-02-16T06:48:32.583Z,9.72
2023-02-16T06:50:59.415Z,10.62
2023-02-16T06:53:26.341Z,9.79
2023-02-16T06:55:53.177Z,9.92
2023-02-16T06:58:20.040Z,9.37
2023-02-16T07:00:47.165Z,9.73
2023-02-16T07:03:14.274Z,10.05
2023-02-16T07:05:41.278Z,10.24
2023-02-16T07:08:08.527Z,10.44
2023-02-16T07:10:49.009Z,11.45
2023-02-16T07:13:16.760Z,11.12
2023-02-16T07:15:43.652Z,11.42
2023-02-16T07:18:10.592Z,11.97
2023-02-16T07:20:38.049Z,11.83
2023-02-16T07:23:05.199Z,11.46
2023-02-16T07:25:32.282Z,11.29
2023-02-16T07:27:59.212Z,10.98
2023-02-16T07:30:26.235Z,11.89
2023-02-16T07:32:53.164Z,12.86
2023-02-16T07:35:20.221Z,12.44
2023-02-16T07:37:47.113Z,12.40
2023-02-16T07:40:14.012Z,12.87
2023-02-16T07:42:40.934Z,13.57
2023-02-16T07:45:08.253Z,13.07
2023-02-16T07:47:35.156Z,13.57
2023-02-16T07:50:02.113Z,13.29
2023-02-16T07:52:31.327Z,11.66
2023-02-16T07:54:59.266Z,11.16
2023-02-16T07:57:27.991Z,11.06
2023-02-16T07:59:55.819Z,11.42
2023-02-16T08:02:23.812Z,13.07
2023-02-16T08:04:52.979Z,15.29
2023-02-16T08:07:21.062Z,15.20
2023-02-16T08:09:47.999Z,15.72
2023-02-16T08:12:16.077Z,14.17
2023-02-16T08:14:43.501Z,15.86
2023-02-16T08:17:10.651Z,15.45
2023-02-16T08:19:37.671Z,14.46
2023-02-16T08:22:05.328Z,13.21
2023-02-16T08:24:34.190Z,14.01
2023-02-16T08:27:04.463Z,14.50
2023-02-16T08:29:32.432Z,13.36
2023-02-16T08:32:00.110Z,12.53
2023-02-16T08:34:27.646Z,12.72
2023-02-16T08:36:56.855Z,12.76
2023-02-16T08:39:28.266Z,13.61
2023-02-16T08:41:55.660Z,13.95
2023-02-16T08:44:24.342Z,14.06
2023-02-16T08:46:53.298Z,13.77
2023-02-16T08:49:22.148Z,14.13
2023-02-16T08:51:56.062Z,14.09
2023-02-16T08:54:30.008Z,12.57
2023-02-16T08:56:59.144Z,13.47
2023-02-16T08:59:28.637Z,14.62
2023-02-16T09:01:58.118Z,14.42
2023-02-16T09:04:26.388Z,13.65
2023-02-16T09:06:53.597Z,14.30
2023-02-16T09:09:20.731Z,14.28
2023-02-16T09:11:48.741Z,13.97
2023-02-16T09:14:18.819Z,14.61
2023-02-16T09:16:46.725Z,15.27
2023-02-16T09:19:20.655Z,15.89
2023-02-16T09:21:48.651Z,16.01
2023-02-16T09:24:16.487Z,16.05
2023-02-16T09:26:44.850Z,17.55
2023-02-16T09:29:13.038Z,16.91
2023-02-16T09:31:40.647Z,13.56
2023-02-16T09:34:09.509Z,14.24
2023-02-16T09:36:38.085Z,16.43
2023-02-16T09:39:05.809Z,16.31
2023-02-16T09:41:41.754Z,16.55
2023-02-16T09:44:17.631Z,16.73
2023-02-16T09:46:44.901Z,17.27
2023-02-16T09:49:45.167Z,13.77
2023-02-16T09:52:24.140Z,16.34
2023-02-16T09:54:56.026Z,16.23
2023-02-16T09:57:33.705Z,18.41
2023-02-16T10:00:45.295Z,18.37
2023-02-16T10:03:32.252Z,17.86
2023-02-16T10:06:24.287Z,13.15
2023-02-16T10:09:00.496Z,15.39
2023-02-16T10:11:45.735Z,16.60
2023-02-16T10:14:34.727Z,17.17
2023-02-16T10:17:15.226Z,19.47
2023-02-16T10:19:57.178Z,19.58
2023-02-16T10:22:33.549Z,15.58
2023-02-16T10:25:15.153Z,16.29
2023-02-16T10:27:46.013Z,17.03
2023-02-16T10:30:18.896Z,18.68
2023-02-16T10:32:57.967Z,19.57
2023-02-16T10:35:41.000Z,20.57
2023-02-16T10:38:14.360Z,16.02
2023-02-16T10:40:44.262Z,16.52
2023-02-16T10:43:18.324Z,18.34
2023-02-16T10:45:55.410Z,20.04
2023-02-16T10:48:23.672Z,20.00
2023-02-16T10:51:06.764Z,20.11
2023-02-16T10:53:45.703Z,20.51
2023-02-16T10:56:31.394Z,16.28
2023-02-16T10:58:59.421Z,15.22
2023-02-16T11:01:39.670Z,18.39
2023-02-16T11:04:06.807Z,19.51
2023-02-16T11:06:36.489Z,19.86
2023-02-16T11:09:04.593Z,19.79
2023-02-16T11:11:38.704Z,21.57
2023-02-16T11:14:19.736Z,15.88
2023-02-16T11:16:47.254Z,16.83
2023-02-16T11:19:25.008Z,17.45
2023-02-16T11:21:58.870Z,18.44
2023-02-16T11:24:27.907Z,18.14
2023-02-16T11:27:04.083Z,17.80
2023-02-16T11:29:31.711Z,15.24
2023-02-16T11:31:59.396Z,16.97
2023-02-16T11:34:40.125Z,17.48
2023-02-16T11:37:28.378Z,18.03
2023-02-16T11:39:59.297Z,18.60
2023-02-16T11:42:44.068Z,18.70
2023-02-16T11:45:29.681Z,14.31
2023-02-16T11:48:13.876Z,13.29
2023-02-16T11:50:57.173Z,15.00
2023-02-16T11:53:27.883Z,14.62
2023-02-16T11:56:19.218Z,12.57
2023-02-16T11:59:04.268Z,14.15
2023-02-16T12:02:02.737Z,15.34
2023-02-16T12:05:07.613Z,12.07
2023-02-16T12:08:09.974Z,12.22
2023-02-16T12:10:54.195Z,13.57
2023-02-16T12:13:36.517Z,12.07
2023-02-16T12:16:22.005Z,11.12
2023-02-16T12:19:07.679Z,12.68
2023-02-16T12:21:45.505Z,9.59
2023-02-16T12:24:42.228Z,8.33
2023-02-16T12:27:39.779Z,7.77
2023-02-16T12:30:12.482Z,6.51
2023-02-16T12:32:55.442Z,6.56
2023-02-16T12:35:38.404Z,6.77
2023-02-16T12:38:14.772Z,6.36
2023-02-16T12:41:32.872Z,6.26
2023-02-16T12:44:18.003Z,6.47
2023-02-16T12:47:08.337Z,6.10
2023-02-16T12:49:52.445Z,6.25
2023-02-16T12:52:35.573Z,6.33
2023-02-16T12:55:23.560Z,5.82
2023-02-16T12:58:08.629Z,5.90
2023-02-16T13:01:19.039Z,6.18
2023-02-16T13:03:50.872Z,5.73
2023-02-16T13:06:40.351Z,6.00
2023-02-16T13:09:25.980Z,5.88
2023-02-16T13:11:58.056Z,5.61
2023-02-16T13:14:32.845Z,5.89
2023-02-16T13:17:03.841Z,6.22
2023-02-16T13:19:31.054Z,6.18
2023-02-16T13:22:29.716Z,6.13
2023-02-16T13:25:04.405Z,6.41
2023-02-16T13:27:41.844Z,6.49
2023-02-16T13:30:20.979Z,6.18
2023-02-16T13:33:07.170Z,6.29
2023-02-16T13:35:45.597Z,6.40
2023-02-16T13:38:31.106Z,6.28
2023-02-16T13:41:24.444Z,6.32
2023-02-16T13:43:57.219Z,6.32
2023-02-16T13:46:32.343Z,6.32
2023-02-16T13:49:02.248Z,6.15
2023-02-16T13:51:44.332Z,6.21
2023-02-16T13:54:28.791Z,6.34
2023-02-16T13:56:56.100Z,6.05
2023-02-16T13:59:22.901Z,5.96
2023-02-16T14:01:51.533Z,6.01
2023-02-16T14:04:27.399Z,5.91
2023-02-16T14:07:03.400Z,5.76
2023-02-16T14:09:31.685Z,6.01
2023-02-16T14:11:59.562Z,6.11
2023-02-16T14:14:27.033Z,6.11
2023-02-16T14:16:54.717Z,5.99
2023-02-16T14:19:26.335Z,6.01
2023-02-16T14:21:53.829Z,6.12
2023-02-16T14:24:32.783Z,5.88
2023-02-16T14:27:05.649Z,5.90
2023-02-16T14:29:38.590Z,6.09
2023-02-16T14:32:46.016Z,5.80
2023-02-16T14:35:24.749Z,5.70
2023-02-16T14:37:58.644Z,5.89
2023-02-16T14:40:34.672Z,5.89
2023-02-16T14:43:12.817Z,5.71
2023-02-16T14:45:59.906Z,5.66
2023-02-16T14:48:59.154Z,5.75
2023-02-16T14:52:04.381Z,5.53
2023-02-16T14:54:58.939Z,5.45
2023-02-16T14:57:37.884Z,5.45
2023-02-16T15:00:19.746Z,5.37
2023-02-16T15:03:15.952Z,5.29
2023-02-16T15:05:43.447Z,5.35
2023-02-16T15:08:19.400Z,5.39
2023-02-16T15:10:46.695Z,5.19
2023-02-16T15:13:34.121Z,5.25
2023-02-16T15:30:20.646Z,4.66
2023-02-16T15:32:53.485Z,4.91
2023-02-16T15:35:37.935Z,4.90
2023-02-16T15:38:26.672Z,4.69
2023-02-16T15:40:55.556Z,4.85
2023-02-16T15:43:44.266Z,4.96
2023-02-16T15:46:39.791Z,4.82
2023-02-16T15:49:27.532Z,4.63
2023-02-16T15:51:56.983Z,4.69
2023-02-16T15:54:30.814Z,4.64
2023-02-16T15:57:04.220Z,4.54
2023-02-16T15:59:47.703Z,4.45
2023-02-16T16:02:37.460Z,4.52
2023-02-16T16:05:09.415Z,4.49
2023-02-16T16:07:41.788Z,4.40
2023-02-16T16:10:29.473Z,4.46
2023-02-16T16:13:07.552Z,4.46
2023-02-16T16:15:39.553Z,4.41
2023-02-16T16:18:06.808Z,4.46
2023-02-16T16:20:39.247Z,4.40
2023-02-16T16:23:07.407Z,4.36
2023-02-16T16:25:34.205Z,4.67
2023-02-16T16:28:02.496Z,4.61
2023-02-16T16:30:31.810Z,4.49
2023-02-16T16:33:07.780Z,4.36
2023-02-16T16:35:42.885Z,4.31
2023-02-16T16:38:28.476Z,4.32
2023-02-16T16:40:58.754Z,4.16
2023-02-16T16:43:30.276Z,4.22
2023-02-16T16:46:28.023Z,4.28
2023-02-16T16:49:00.152Z,4.17
2023-02-16T16:51:27.792Z,4.26
2023-02-16T16:54:05.613Z,4.29
2023-02-16T16:56:37.611Z,4.36
2023-02-16T16:59:05.263Z,4.37
2023-02-16T17:01:32.743Z,4.42
2023-02-16T17:04:00.315Z,4.29
2023-02-16T17:06:27.399Z,4.35
2023-02-16T17:08:55.389Z,4.40
2023-02-16T17:11:28.484Z,4.38
2023-02-16T17:13:57.676Z,4.36
2023-02-16T17:16:38.227Z,4.42
2023-02-16T17:19:05.342Z,4.36
2023-02-16T17:21:32.437Z,4.41
2023-02-16T17:23:59.295Z,4.39
2023-02-16T17:26:26.213Z,4.35
2023-02-16T17:28:53.003Z,4.22
2023-02-16T17:31:20.033Z,4.35
2023-02-16T17:33:46.924Z,4.40
2023-02-16T17:36:16.248Z,4.26
2023-02-16T17:38:44.353Z,4.51
2023-02-16T17:41:19.940Z,4.55
2023-02-16T17:43:46.852Z,4.47
2023-02-16T17:46:14.997Z,4.38
2023-02-16T17:48:42.218Z,4.51
2023-02-16T17:51:18.067Z,4.58
2023-02-16T17:53:45.329Z,4.35
2023-02-16T17:56:13.884Z,4.34
2023-02-16T17:58:41.362Z,4.43
2023-02-16T18:01:13.051Z,4.37
2023-02-16T18:03:40.140Z,4.30
2023-02-16T18:06:07.135Z,4.25
2023-02-16T18:08:34.311Z,4.37
2023-02-16T18:11:04.179Z,4.36
2023-02-16T18:13:31.876Z,4.14
2023-02-16T18:16:01.033Z,4.13
2023-02-16T18:18:27.949Z,4.13
2023-02-16T18:20:54.940Z,4.23
2023-02-16T18:23:21.893Z,4.21
2023-02-16T18:25:48.830Z,4.10
2023-02-16T18:28:21.263Z,4.23
2023-02-16T18:30:49.345Z,4.30
2023-02-16T18:33:23.378Z,4.10
2023-02-16T18:35:56.057Z,4.05
2023-02-16T18:38:23.853Z,4.10
2023-02-16T18:40:52.736Z,4.13
2023-02-16T18:43:20.074Z,3.94
2023-02-16T18:45:47.233Z,4.01
2023-02-16T18:48:14.065Z,4.00
2023-02-16T18:50:40.987Z,4.01
2023-02-16T18:53:07.885Z,3.98
2023-02-16T18:55:35.241Z,3.85
2023-02-16T18:58:07.739Z,3.92
2023-02-16T19:00:35.589Z,3.92
2023-02-16T19:03:02.956Z,3.92
2023-02-16T19:05:30.182Z,3.88
2023-02-16T19:07:57.170Z,3.84
2023-02-16T19:10:25.143Z,3.99
2023-02-16T19:12:52.238Z,4.22
2023-02-16T19:15:19.317Z,4.29
2023-02-16T19:17:46.179Z,4.33
2023-02-16T19:20:18.066Z,4.41
2023-02-16T19:22:46.874Z,4.30
2023-02-16T19:25:14.718Z,4.23
2023-02-16T19:27:42.079Z,4.32
2023-02-16T19:30:10.462Z,4.36
2023-02-16T19:32:41.055Z,4.27
2023-02-16T19:35:11.740Z,4.16
2023-02-16T19:37:39.128Z,4.19
2023-02-16T19:40:09.576Z,4.20
2023-02-16T19:42:37.470Z,4.15
2023-02-16T19:45:04.996Z,4.12
2023-02-16T19:47:31.889Z,4.13
2023-02-16T19:49:58.784Z,4.20
2023-02-16T19:52:25.625Z,4.18
2023-02-16T19:54:52.487Z,4.15
2023-02-16T19:57:19.544Z,4.20
2023-02-16T19:59:46.388Z,4.21
2023-02-16T20:02:15.563Z,4.22
2023-02-16T20:04:44.026Z,4.11
2023-02-16T20:07:10.949Z,4.16
2023-02-16T20:09:38.014Z,4.23
2023-02-16T20:12:05.689Z,4.27
2023-02-16T20:14:32.699Z,4.21
2023-02-16T20:16:59.662Z,4.23
2023-02-16T20:19:26.538Z,4.28
2023-02-16T20:21:53.375Z,4.36
2023-02-16T20:24:20.644Z,4.10
2023-02-16T20:26:49.226Z,4.11
2023-02-16T20:29:20.905Z,4.09
2023-02-16T20:31:57.322Z,4.16
2023-02-16T20:34:26.428Z,3.82
2023-02-16T20:36:54.312Z,3.77
2023-02-16T20:39:21.498Z,3.81
2023-02-16T20:41:48.404Z,3.81
2023-02-16T20:44:15.628Z,3.72
2023-02-16T20:46:43.111Z,3.75
2023-02-16T20:49:10.436Z,3.87
2023-02-16T20:51:38.151Z,3.88
2023-02-16T20:54:05.905Z,3.66
2023-02-16T20:56:33.121Z,3.56
2023-02-16T20:59:00.046Z,3.55
2023-02-16T21:01:46.897Z,3.44
2023-02-16T21:04:15.953Z,3.25
2023-02-16T21:06:43.235Z,3.22
2023-02-16T21:09:11.150Z,3.20
2023-02-16T21:11:39.416Z,3.24
2023-02-16T21:14:08.314Z,3.28
2023-02-16T21:16:35.345Z,3.41
2023-02-16T21:19:07.248Z,3.52
2023-02-16T21:21:38.770Z,3.26
2023-02-16T21:24:05.813Z,3.37
2023-02-16T21:26:32.850Z,3.44
2023-02-16T21:29:00.016Z,3.51
2023-02-16T21:31:27.038Z,3.45
2023-02-16T21:33:54.109Z,3.54
2023-02-16T21:36:23.461Z,3.66
2023-02-16T21:38:50.547Z,3.52
2023-02-16T21:41:27.512Z,3.41
2023-02-16T21:44:11.114Z,3.41
2023-02-16T21:46:39.844Z,3.35
2023-02-16T21:49:09.689Z,3.02
2023-02-16T21:51:45.773Z,2.97
2023-02-16T21:54:18.074Z,2.96
2023-02-16T21:56:54.757Z,2.94
2023-02-16T21:59:23.671Z,2.94
2023-02-16T22:01:52.677Z,2.93
2023-02-16T22:04:23.679Z,2.99
2023-02-16T22:06:51.943Z,3.14
2023-02-16T22:09:23.334Z,3.17
2023-02-16T22:11:51.949Z,3.17
2023-02-16T22:14:20.088Z,3.25
2023-02-16T22:16:48.020Z,3.29
2023-02-16T22:19:19.944Z,3.30
2023-02-16T22:21:48.656Z,3.21
2023-02-16T22:24:20.256Z,3.29
2023-02-16T22:26:49.299Z,3.34
2023-02-16T22:29:16.877Z,3.49
2023-02-16T22:31:48.064Z,3.52
2023-02-16T22:34:17.502Z,3.62
2023-02-16T22:36:44.356Z,3.68
2023-02-16T22:39:13.244Z,3.78
2023-02-16T22:41:40.156Z,3.83
2023-02-16T22:44:07.477Z,3.59
2023-02-16T22:46:34.480Z,3.58
2023-02-16T22:49:02.150Z,3.55
2023-02-16T22:51:30.959Z,3.56
2023-02-16T22:54:00.697Z,3.36
2023-02-16T22:56:30.005Z,3.27
2023-02-16T22:58:58.293Z,3.20
2023-02-16T23:01:27.417Z,3.20
2023-02-16T23:03:58.811Z,3.17
2023-02-16T23:06:27.153Z,3.25
2023-02-16T23:08:57.557Z,3.19
2023-02-16T23:11:25.482Z,3.10
2023-02-16T23:13:52.384Z,3.19
2023-02-16T23:16:22.880Z,3.21
2023-02-16T23:18:50.313Z,3.10
2023-02-16T23:21:28.093Z,3.13
2023-02-16T23:23:55.686Z,3.11
2023-02-16T23:26:24.924Z,3.17
2023-02-16T23:28:57.273Z,3.14
2023-02-16T23:31:24.244Z,3.12
2023-02-16T23:33:51.534Z,3.19
2023-02-16T23:36:18.458Z,3.15
2023-02-16T23:38:45.298Z,2.99
2023-02-16T23:41:13.812Z,3.01
2023-02-16T23:43:40.799Z,3.00
2023-02-16T23:46:08.546Z,2.92
2023-02-16T23:48:35.899Z,2.56
2023-02-16T23:51:02.756Z,2.47
2023-02-16T23:53:29.718Z,2.42
2023-02-16T23:56:02.165Z,2.36
2023-02-16T23:58:31.357Z,2.26
